Time;durP1;ratioP1;P1;durP2;ratioP2;P2;SDS_P1;SDS_P2;PMS_P1;PMS_P2;Temp;Humidity;BMP_temperature;BMP_pressure;BME280_temperature;BME280_humidity;BME280_pressure;Samples;Min_cycle;Max_cycle;Signal;HPM_P1;HPM_P2
2021/05/11 00:01:38;;;;;;;8.10;2.40;;;12.60;99.90;;;;;;6232260;23;20204;-78
2021/05/11 00:04:05;;;;;;;5.43;2.73;;;12.60;99.90;;;;;;6231925;23;20166;-79
2021/05/11 00:06:31;;;;;;;8.30;2.50;;;12.60;99.90;;;;;;6232474;23;20573;-79
2021/05/11 00:08:58;;;;;;;7.43;2.13;;;12.60;99.90;;;;;;6232349;23;20574;-78
2021/05/11 00:11:25;;;;;;;6.30;2.07;;;12.60;99.90;;;;;;6232066;22;20299;-79
2021/05/11 00:13:52;;;;;;;7.40;2.27;;;12.50;99.90;;;;;;6232848;23;20686;-78
2021/05/11 00:16:18;;;;;;;5.10;2.20;;;12.50;99.90;;;;;;6232157;23;20173;-78
2021/05/11 00:18:45;;;;;;;4.93;1.80;;;12.60;99.90;;;;;;6231884;23;20601;-78
2021/05/11 00:21:11;;;;;;;4.57;2.00;;;12.50;99.90;;;;;;6231693;23;20169;-79
2021/05/11 00:23:37;;;;;;;3.33;1.70;;;12.50;99.90;;;;;;6233070;23;20177;-78
2021/05/11 00:26:04;;;;;;;4.77;2.00;;;12.50;99.90;;;;;;6231091;23;20172;-78
2021/05/11 00:28:31;;;;;;;7.07;2.00;;;12.50;99.90;;;;;;6233121;23;20200;-77
2021/05/11 00:30:57;;;;;;;7.37;2.30;;;12.50;99.90;;;;;;6232494;23;20652;-78
2021/05/11 00:33:24;;;;;;;2.57;1.70;;;12.50;99.90;;;;;;6231020;23;20567;-79
2021/05/11 00:35:50;;;;;;;4.37;1.97;;;12.50;99.90;;;;;;6232408;23;20177;-79
2021/05/11 00:38:16;;;;;;;5.97;2.37;;;12.50;99.90;;;;;;6232616;23;20194;-77
2021/05/11 00:40:42;;;;;;;8.97;2.00;;;12.50;99.90;;;;;;6231124;23;20570;-79
2021/05/11 00:43:09;;;;;;;5.80;2.00;;;12.40;99.90;;;;;;6232235;23;20180;-76
2021/05/11 00:45:36;;;;;;;4.27;1.50;;;12.40;99.90;;;;;;6232297;23;20288;-79
2021/05/11 00:48:02;;;;;;;4.70;1.67;;;12.40;99.90;;;;;;6232286;23;20412;-77
2021/05/11 00:50:29;;;;;;;6.50;2.50;;;12.40;99.90;;;;;;6232105;23;20177;-77
2021/05/11 00:52:55;;;;;;;5.40;2.40;;;12.40;99.90;;;;;;6232009;23;20936;-78
2021/05/11 00:55:22;;;;;;;8.47;3.07;;;12.40;99.90;;;;;;6232810;23;20201;-77
2021/05/11 00:57:48;;;;;;;7.03;2.27;;;12.40;99.90;;;;;;6231739;23;20247;-77
2021/05/11 01:00:15;;;;;;;6.83;2.33;;;12.40;99.90;;;;;;6231576;23;20166;-76
2021/05/11 01:02:43;;;;;;;4.87;1.80;;;12.30;99.90;;;;;;6232002;23;20510;-77
2021/05/11 01:05:10;;;;;;;5.43;2.30;;;12.30;99.90;;;;;;6232672;23;20235;-79
2021/05/11 01:07:36;;;;;;;4.47;2.00;;;12.30;99.90;;;;;;6233753;23;20177;-77
2021/05/11 01:10:04;;;;;;;5.40;2.40;;;12.30;99.90;;;;;;6234848;22;20204;-77
2021/05/11 01:12:30;;;;;;;3.40;1.57;;;12.30;99.90;;;;;;6232398;23;20633;-77
2021/05/11 01:14:57;;;;;;;5.63;1.90;;;12.30;99.90;;;;;;6232522;23;20173;-77
2021/05/11 01:17:26;;;;;;;3.33;2.30;;;12.30;99.90;;;;;;6234965;23;20258;-78
2021/05/11 01:19:55;;;;;;;6.00;2.20;;;12.20;99.90;;;;;;6234124;23;20169;-77
2021/05/11 01:22:35;;;;;;;6.27;2.20;;;12.20;99.90;;;;;;6234050;23;20180;-77
2021/05/11 01:25:04;;;;;;;8.03;2.50;;;12.20;99.90;;;;;;6234101;23;20169;-78
2021/05/11 01:27:53;;;;;;;5.57;2.63;;;12.20;99.90;;;;;;6234719;23;20176;-78
2021/05/11 01:30:50;;;;;;;5.63;2.20;;;12.20;99.90;;;;;;6234316;23;20328;-79
2021/05/11 01:47:32;;;;;;;5.10;2.33;;;12.10;99.90;;;;;;6233988;23;20228;-77
2021/05/11 01:50:15;;;;;;;5.50;2.90;;;12.10;99.90;;;;;;6233906;23;20219;-78
2021/05/11 01:52:58;;;;;;;8.83;3.93;;;12.00;99.90;;;;;;6234949;23;20170;-78
2021/05/11 01:55:54;;;;;;;7.70;2.53;;;12.00;99.90;;;;;;6234092;23;20236;-78
2021/05/11 02:18:06;;;;;;;4.80;2.70;;;11.70;99.90;;;;;;6233316;23;20213;-78
2021/05/11 02:23:18;;;;;;;5.20;2.37;;;11.70;99.90;;;;;;6233983;23;20616;-78
2021/05/11 02:25:44;;;;;;;3.67;2.00;;;11.70;99.90;;;;;;6232762;23;20531;-78
2021/05/11 02:28:12;;;;;;;2.50;1.83;;;11.60;99.90;;;;;;6233393;23;20671;-78
2021/05/11 02:30:38;;;;;;;4.93;2.93;;;11.60;99.90;;;;;;6234187;23;20231;-79
2021/05/11 02:33:04;;;;;;;7.27;2.60;;;11.50;99.90;;;;;;6233159;23;20224;-79
2021/05/11 02:35:31;;;;;;;7.63;3.17;;;11.50;99.90;;;;;;6233738;23;20821;-78
2021/05/11 02:37:57;;;;;;;12.27;3.83;;;11.50;99.90;;;;;;6233214;23;20266;-78
2021/05/11 02:40:24;;;;;;;6.27;3.73;;;11.40;99.90;;;;;;6232901;23;20177;-80
2021/05/11 02:42:55;;;;;;;5.60;3.10;;;11.40;99.90;;;;;;6232809;23;20219;-78
2021/05/11 02:45:22;;;;;;;5.70;3.37;;;11.30;99.90;;;;;;6232797;23;20213;-79
2021/05/11 02:47:50;;;;;;;4.10;2.90;;;11.30;99.90;;;;;;6232734;23;20442;-78
2021/05/11 02:50:18;;;;;;;3.63;2.50;;;11.20;99.90;;;;;;6233956;23;20249;-80
2021/05/11 02:52:45;;;;;;;2.70;2.40;;;11.20;99.90;;;;;;6232502;23;20177;-79
2021/05/11 02:55:12;;;;;;;4.83;3.03;;;11.20;99.90;;;;;;6232962;23;20169;-79
2021/05/11 02:57:38;;;;;;;5.90;2.83;;;11.20;99.90;;;;;;6233474;23;20197;-79
2021/05/11 03:00:07;;;;;;;2.93;2.50;;;11.10;99.90;;;;;;6231891;23;20291;-79
2021/05/11 03:02:34;;;;;;;3.57;2.10;;;11.10;99.90;;;;;;6233263;23;20565;-78
2021/05/11 03:05:00;;;;;;;4.50;2.23;;;11.10;99.90;;;;;;6233436;23;20276;-77
2021/05/11 03:07:27;;;;;;;3.33;2.40;;;11.00;99.90;;;;;;6232695;23;20477;-77
2021/05/11 03:09:53;;;;;;;3.63;2.40;;;11.00;99.90;;;;;;6233434;22;20189;-78
2021/05/11 03:12:20;;;;;;;3.63;2.37;;;11.00;99.90;;;;;;6233639;23;20193;-78
2021/05/11 03:14:46;;;;;;;4.63;2.83;;;11.00;99.90;;;;;;6232696;23;20264;-78
2021/05/11 03:17:13;;;;;;;5.53;3.13;;;10.90;99.90;;;;;;6234013;23;20177;-79
2021/05/11 03:19:40;;;;;;;3.93;2.43;;;10.90;99.90;;;;;;6232202;23;20201;-79
2021/05/11 03:22:07;;;;;;;4.33;2.77;;;10.90;99.90;;;;;;6231916;23;20166;-79
2021/05/11 03:24:35;;;;;;;3.67;2.80;;;10.80;99.90;;;;;;6232393;23;20525;-78
2021/05/11 03:27:01;;;;;;;5.80;3.20;;;10.80;99.90;;;;;;6232130;23;20181;-79
2021/05/11 03:29:27;;;;;;;4.37;2.80;;;10.80;99.90;;;;;;6232100;23;20181;-79
2021/05/11 03:31:54;;;;;;;6.77;3.37;;;10.70;99.90;;;;;;6232862;23;20177;-78
2021/05/11 03:34:20;;;;;;;4.07;2.77;;;10.70;99.90;;;;;;6232266;23;20169;-78
2021/05/11 03:36:48;;;;;;;4.27;3.40;;;10.70;99.90;;;;;;6232564;23;20185;-79
2021/05/11 03:39:14;;;;;;;4.03;3.33;;;10.60;99.90;;;;;;6232373;23;20189;-78
2021/05/11 03:41:44;;;;;;;5.33;3.23;;;10.60;99.90;;;;;;6232137;23;20621;-78
2021/05/11 03:44:12;;;;;;;5.23;3.03;;;10.60;99.90;;;;;;6232006;23;20352;-78
2021/05/11 03:46:39;;;;;;;4.80;2.47;;;10.50;99.90;;;;;;6233217;23;20184;-78
2021/05/11 03:49:06;;;;;;;5.73;3.00;;;10.50;99.90;;;;;;6232291;23;20170;-78
2021/05/11 03:51:34;;;;;;;2.93;2.60;;;10.40;99.90;;;;;;6232653;23;20254;-78
2021/05/11 03:54:01;;;;;;;9.40;3.43;;;10.40;99.90;;;;;;6233112;23;20177;-77
2021/05/11 03:56:28;;;;;;;4.13;3.00;;;10.40;99.90;;;;;;6232515;23;20209;-78
2021/05/11 03:58:55;;;;;;;3.90;3.00;;;10.40;99.90;;;;;;6232355;23;20279;-78
2021/05/11 04:01:21;;;;;;;6.67;3.50;;;10.30;99.90;;;;;;6233059;23;20177;-78
2021/05/11 04:03:48;;;;;;;4.03;3.37;;;10.30;99.90;;;;;;6231522;23;20242;-79
2021/05/11 04:06:14;;;;;;;5.27;3.63;;;10.30;99.90;;;;;;6232458;23;20577;-78
2021/05/11 04:08:44;;;;;;;4.10;3.47;;;10.20;99.90;;;;;;6233060;23;20166;-78
2021/05/11 04:11:24;;;;;;;6.00;3.63;;;10.20;99.90;;;;;;6232692;22;20224;-79
2021/05/11 04:16:36;;;;;;;6.17;3.87;;;10.20;99.90;;;;;;6232439;23;20614;-78
2021/05/11 04:19:02;;;;;;;5.17;3.80;;;10.20;99.90;;;;;;6233384;23;20593;-79
2021/05/11 04:21:29;;;;;;;5.80;3.63;;;10.20;99.90;;;;;;6233164;23;20226;-78
2021/05/11 04:23:55;;;;;;;5.43;3.77;;;10.20;99.90;;;;;;6232777;23;20161;-79
2021/05/11 04:26:24;;;;;;;5.20;3.17;;;10.20;99.90;;;;;;6233656;23;20184;-78
2021/05/11 04:28:51;;;;;;;6.93;4.23;;;10.20;99.90;;;;;;6233216;23;20169;-79
2021/05/11 04:31:18;;;;;;;4.33;3.23;;;10.20;99.90;;;;;;6233079;23;20204;-77
2021/05/11 04:33:45;;;;;;;4.13;3.27;;;10.20;99.90;;;;;;6233086;23;20593;-78
2021/05/11 04:36:13;;;;;;;6.50;3.40;;;10.20;99.90;;;;;;6233176;23;20169;-78
2021/05/11 04:38:40;;;;;;;5.87;3.67;;;10.20;99.90;;;;;;6233547;23;20284;-78
2021/05/11 04:41:07;;;;;;;6.90;4.20;;;10.20;99.90;;;;;;6235102;23;20176;-78
2021/05/11 04:43:35;;;;;;;6.10;4.40;;;10.30;99.90;;;;;;6235501;23;20165;-78
2021/05/11 04:46:09;;;;;;;5.80;3.90;;;10.30;99.90;;;;;;6234366;23;20169;-79
2021/05/11 04:48:36;;;;;;;5.40;3.33;;;10.30;99.90;;;;;;6235190;23;20166;-78
2021/05/11 04:51:02;;;;;;;7.00;4.27;;;10.30;99.90;;;;;;6234996;23;20180;-79
2021/05/11 04:53:29;;;;;;;9.63;5.63;;;10.40;99.90;;;;;;6232120;23;20182;-78
2021/05/11 04:55:55;;;;;;;10.73;5.43;;;10.40;99.90;;;;;;6233587;23;20687;-78
2021/05/11 04:58:22;;;;;;;11.07;5.63;;;10.50;99.90;;;;;;6234499;23;20224;-78
2021/05/11 05:00:50;;;;;;;9.43;5.87;;;10.50;99.90;;;;;;6234173;23;20173;-77
2021/05/11 05:03:17;;;;;;;10.20;6.00;;;10.60;99.90;;;;;;6234207;23;20191;-77
2021/05/11 05:05:44;;;;;;;9.13;6.00;;;10.60;99.90;;;;;;6234430;23;20176;-77
2021/05/11 05:08:10;;;;;;;8.50;5.43;;;10.70;99.90;;;;;;6232971;23;20169;-78
2021/05/11 05:10:37;;;;;;;10.53;6.20;;;10.70;99.90;;;;;;6233298;22;20247;-79
2021/05/11 05:13:03;;;;;;;10.10;6.67;;;10.80;99.90;;;;;;6232939;23;20176;-77
2021/05/11 05:15:31;;;;;;;11.83;5.67;;;11.00;99.90;;;;;;6233220;23;20231;-77
2021/05/11 05:17:58;;;;;;;11.60;6.33;;;11.10;99.90;;;;;;6233040;23;20201;-77
2021/05/11 05:20:25;;;;;;;11.70;5.67;;;11.20;99.90;;;;;;6231950;23;20188;-77
2021/05/11 05:22:51;;;;;;;7.40;5.60;;;11.30;99.90;;;;;;6233100;23;20173;-77
2021/05/11 05:25:20;;;;;;;7.30;5.73;;;11.40;99.90;;;;;;6233857;23;20257;-78
2021/05/11 05:27:49;;;;;;;13.53;7.57;;;11.50;99.90;;;;;;6232029;23;20239;-77
2021/05/11 05:30:16;;;;;;;10.77;6.23;;;11.60;99.90;;;;;;6233917;23;20203;-77
2021/05/11 05:32:43;;;;;;;11.47;5.93;;;11.80;99.90;;;;;;6233669;23;20173;-77
2021/05/11 05:35:11;;;;;;;10.27;6.43;;;11.80;99.90;;;;;;6232303;23;20427;-78
2021/05/11 05:37:37;;;;;;;12.60;6.20;;;11.90;99.90;;;;;;6233868;23;20169;-77
2021/05/11 05:40:06;;;;;;;12.30;6.20;;;12.00;99.90;;;;;;6234427;23;20177;-78
2021/05/11 05:42:33;;;;;;;10.17;5.80;;;12.10;99.90;;;;;;6232552;23;20169;-77
2021/05/11 05:44:59;;;;;;;10.50;5.63;;;12.20;99.90;;;;;;6233734;23;20562;-80
2021/05/11 05:47:26;;;;;;;8.73;5.83;;;12.20;99.90;;;;;;6234098;23;20177;-78
2021/05/11 05:49:58;;;;;;;10.70;5.33;;;12.30;99.90;;;;;;6233471;23;20169;-77
2021/05/11 05:52:34;;;;;;;6.47;4.60;;;12.40;99.90;;;;;;6234687;23;20172;-77
2021/05/11 05:55:01;;;;;;;9.57;5.70;;;12.50;99.90;;;;;;6232723;23;20169;-78
2021/05/11 05:57:27;;;;;;;12.83;6.50;;;12.50;99.90;;;;;;6234014;23;20205;-78
2021/05/11 05:59:54;;;;;;;8.63;5.30;;;12.70;99.90;;;;;;6234563;23;20291;-77
2021/05/11 06:02:22;;;;;;;12.30;5.97;;;12.80;99.90;;;;;;6233925;23;20173;-77
2021/05/11 06:04:49;;;;;;;9.87;5.67;;;13.00;99.90;;;;;;6233173;23;20273;-77
2021/05/11 06:07:16;;;;;;;11.53;5.53;;;13.20;99.90;;;;;;6233205;23;20169;-77
2021/05/11 06:09:44;;;;;;;10.73;5.77;;;13.60;99.90;;;;;;6232726;22;20194;-78
2021/05/11 06:12:16;;;;;;;8.40;5.77;;;14.10;99.90;;;;;;6233665;23;20226;-77
2021/05/11 06:14:58;;;;;;;9.40;5.70;;;14.80;99.90;;;;;;6233181;23;20165;-77
2021/05/11 06:17:24;;;;;;;7.55;4.95;;;15.40;99.90;;;;;;6231968;23;20169;-78
2021/05/11 06:19:52;;;;;;;9.60;4.75;;;16.00;99.90;;;;;;6233154;23;20227;-77
2021/05/11 06:22:19;;;;;;;8.68;3.92;;;16.50;99.90;;;;;;6234111;23;20184;-77
2021/05/11 06:24:46;;;;;;;7.82;4.07;;;17.00;99.90;;;;;;6233334;23;20177;-76
2021/05/11 06:27:13;;;;;;;8.30;3.80;;;17.40;99.90;;;;;;6232829;23;20166;-77
2021/05/11 06:29:43;;;;;;;7.93;3.33;;;17.50;99.90;;;;;;6233247;23;20216;-77
2021/05/11 06:32:11;;;;;;;7.53;3.45;;;17.40;99.90;;;;;;6231912;23;20173;-75
2021/05/11 06:34:40;;;;;;;7.35;3.00;;;17.40;99.90;;;;;;6233272;23;20166;-77
2021/05/11 06:37:06;;;;;;;8.93;3.05;;;17.60;99.90;;;;;;6234157;23;20177;-77
2021/05/11 06:39:34;;;;;;;7.40;2.95;;;17.80;99.90;;;;;;6232871;23;20220;-77
2021/05/11 06:42:01;;;;;;;7.10;3.05;;;18.00;99.90;;;;;;6233365;23;20274;-76
2021/05/11 06:44:35;;;;;;;8.18;2.78;;;18.00;99.90;;;;;;6232764;23;20182;-77
2021/05/11 06:47:20;;;;;;;8.70;3.65;;;18.20;99.90;;;;;;6232900;23;20307;-77
2021/05/11 06:50:00;;;;;;;8.80;3.20;;;18.30;99.90;;;;;;6232801;23;20168;-77
2021/05/11 06:55:14;;;;;;;5.80;2.45;;;18.70;99.90;;;;;;6232760;23;20288;-77
2021/05/11 06:57:41;;;;;;;7.50;3.00;;;19.00;99.90;;;;;;6233094;23;20196;-77
2021/05/11 07:00:09;;;;;;;5.88;2.45;;;19.20;99.90;;;;;;6232285;23;20242;-77
2021/05/11 07:02:35;;;;;;;5.28;2.20;;;19.30;99.90;;;;;;6232751;23;20179;-77
2021/05/11 07:05:02;;;;;;;7.13;2.80;;;19.30;99.90;;;;;;6232926;23;20173;-77
2021/05/11 07:07:30;;;;;;;6.63;2.28;;;19.60;99.90;;;;;;6231888;23;20169;-76
2021/05/11 07:10:07;;;;;;;7.85;2.00;;;19.70;99.90;;;;;;6233692;22;20228;-76
2021/05/11 07:15:19;;;;;;;7.45;2.38;;;19.90;99.90;;;;;;6233243;23;20608;-77
2021/05/11 07:17:45;;;;;;;5.10;1.63;;;19.80;99.90;;;;;;6232896;23;20192;-79
2021/05/11 07:20:12;;;;;;;6.30;1.60;;;19.90;99.90;;;;;;6231334;23;20173;-77
2021/05/11 07:23:04;;;;;;;3.90;1.45;;;19.70;99.90;;;;;;6124949;23;20455;-78
2021/05/11 07:25:35;;;;;;;5.22;1.42;;;19.90;99.90;;;;;;6232700;23;20165;-77
2021/05/11 07:30:46;;;;;;;4.60;1.92;;;20.10;99.90;;;;;;6217129;23;20180;-76
2021/05/11 07:33:13;;;;;;;5.47;1.73;;;20.20;99.90;;;;;;6232644;23;20348;-76
2021/05/11 07:35:40;;;;;;;5.07;1.70;;;20.20;99.90;;;;;;6232010;23;20255;-76
2021/05/11 07:38:08;;;;;;;4.45;1.40;;;20.20;99.90;;;;;;6232148;23;20197;-77
2021/05/11 07:40:35;;;;;;;4.00;1.58;;;20.10;99.90;;;;;;6223898;23;20267;-77
2021/05/11 07:43:01;;;;;;;5.95;1.85;;;20.00;99.90;;;;;;6232727;23;20256;-77
2021/05/11 07:45:36;;;;;;;5.35;1.67;;;19.90;99.90;;;;;;6232347;23;20799;-76
2021/05/11 08:02:20;;;;;;;6.38;2.20;;;19.50;99.90;;;;;;6109150;23;20581;-78
2021/05/11 08:04:58;;;;;;;6.47;2.40;;;19.50;99.90;;;;;;6190191;23;20611;-77
2021/05/11 08:10:30;;;;;;;8.02;2.58;;;19.80;99.90;;;;;;6230666;22;20292;-77
2021/05/11 08:15:44;;;;;;;7.60;2.50;;;19.90;99.90;;;;;;6231472;23;20204;-76
2021/05/11 08:18:16;;;;;;;5.40;2.72;;;19.80;99.90;;;;;;6232485;23;20597;-76
2021/05/11 08:29:07;;;;;;;9.27;3.45;;;18.90;99.90;;;;;;6232068;23;20215;-77
2021/05/11 08:31:34;;;;;;;6.45;2.88;;;18.80;99.90;;;;;;6231193;23;20177;-77
2021/05/11 08:34:00;;;;;;;8.27;3.15;;;18.70;99.90;;;;;;6232261;23;20173;-77
2021/05/11 08:36:27;;;;;;;5.90;3.03;;;18.90;99.90;;;;;;6232772;23;20173;-77
2021/05/11 08:38:56;;;;;;;7.85;3.28;;;18.90;99.90;;;;;;6231947;23;20197;-77
2021/05/11 08:41:23;;;;;;;7.18;3.80;;;18.80;99.90;;;;;;6229152;23;20817;-77
2021/05/11 08:43:49;;;;;;;7.63;3.85;;;18.60;99.90;;;;;;6231611;23;20164;-76
2021/05/11 08:46:16;;;;;;;7.55;4.22;;;18.60;99.90;;;;;;6232170;23;20230;-76
2021/05/11 08:48:42;;;;;;;7.88;3.95;;;18.80;99.90;;;;;;6232522;23;20173;-77
2021/05/11 08:51:12;;;;;;;9.30;5.25;;;18.90;99.90;;;;;;6231598;23;20212;-77
2021/05/11 08:54:02;;;;;;;8.63;4.78;;;19.10;99.90;;;;;;6232170;23;20173;-77
2021/05/11 09:04:57;;;;;;;12.07;9.60;;;18.90;99.90;;;;;;6232606;23;20165;-76
2021/05/11 09:24:24;;;;;;;11.60;9.98;;;18.40;99.90;;;;;;6232481;23;20265;-76
2021/05/11 09:26:56;;;;;;;15.38;9.88;;;18.50;99.90;;;;;;6233066;23;20616;-76
2021/05/11 09:29:28;;;;;;;12.00;8.07;;;18.50;99.90;;;;;;6229117;23;20177;-76
2021/05/11 09:32:02;;;;;;;10.05;7.13;;;18.60;99.90;;;;;;6233339;23;20181;-76
2021/05/11 09:34:36;;;;;;;11.02;7.45;;;18.60;99.90;;;;;;6231393;23;20184;-77
2021/05/11 09:57:05;;;;;;;9.95;6.45;;;18.60;99.90;;;;;;6233107;23;20251;-77
2021/05/11 10:48:41;;;;;;;13.30;8.68;;;19.00;99.90;;;;;;6230054;23;20180;-76
2021/05/11 10:51:17;;;;;;;10.23;8.68;;;19.10;99.90;;;;;;6231653;23;20184;-77
2021/05/11 10:54:01;;;;;;;10.07;9.07;;;19.10;99.90;;;;;;6233240;23;20165;-75
2021/05/11 10:57:07;;;;;;;10.80;9.68;;;19.20;99.90;;;;;;6232815;23;20205;-78
2021/05/11 11:05:36;;;;;;;10.07;9.07;;;19.20;99.90;;;;;;6231944;23;20165;-78
2021/05/11 11:08:02;;;;;;;10.40;9.25;;;19.40;99.90;;;;;;6232954;23;20599;-78
2021/05/11 11:10:30;;;;;;;10.48;9.02;;;19.50;99.90;;;;;;6232763;22;20193;-78
2021/05/11 11:12:57;;;;;;;10.10;9.10;;;19.60;99.90;;;;;;6232994;23;20227;-80
2021/05/11 11:15:23;;;;;;;8.75;7.85;;;19.50;99.90;;;;;;6233608;23;20177;-77
2021/05/11 11:17:53;;;;;;;8.70;7.97;;;19.50;99.90;;;;;;6234040;23;20173;-79
2021/05/11 11:20:33;;;;;;;8.82;7.93;;;19.20;99.90;;;;;;6228310;23;20775;-78
2021/05/11 11:26:05;;;;;;;9.38;7.95;;;19.10;99.90;;;;;;6234929;23;20208;-77
2021/05/11 11:28:32;;;;;;;8.10;7.30;;;19.10;99.90;;;;;;6235228;23;20197;-77
2021/05/11 11:30:59;;;;;;;8.48;7.68;;;19.00;99.90;;;;;;6236253;23;20184;-77
2021/05/11 11:33:25;;;;;;;8.07;7.30;;;19.00;99.90;;;;;;6236241;23;20173;-78
2021/05/11 11:35:53;;;;;;;7.95;7.15;;;19.10;99.90;;;;;;6237844;23;20200;-78
2021/05/11 11:38:25;;;;;;;8.45;7.65;;;19.00;99.90;;;;;;6234216;23;20178;-78
2021/05/11 11:40:59;;;;;;;7.95;7.25;;;19.30;99.90;;;;;;6235630;23;20182;-76
2021/05/11 11:43:26;;;;;;;9.13;7.90;;;19.50;99.90;;;;;;6235770;23;20231;-74
2021/05/11 11:45:53;;;;;;;8.77;7.88;;;19.70;99.90;;;;;;6237802;23;20169;-76
2021/05/11 11:48:21;;;;;;;9.23;7.47;;;19.80;99.90;;;;;;6233001;23;20173;-78
2021/05/11 11:50:55;;;;;;;10.25;9.23;;;19.70;99.90;;;;;;6230859;23;20173;-78
2021/05/11 11:53:24;;;;;;;9.32;8.52;;;19.70;99.90;;;;;;6231746;23;20205;-77
2021/05/11 11:56:10;;;;;;;11.57;9.18;;;19.80;99.90;;;;;;6230585;23;20644;-76
2021/05/11 11:58:36;;;;;;;12.25;8.70;;;19.80;99.90;;;;;;6230988;23;20315;-77
2021/05/11 12:01:12;;;;;;;10.20;8.70;;;19.80;99.90;;;;;;6230925;23;20332;-74
2021/05/11 12:03:40;;;;;;;9.23;8.32;;;19.70;99.90;;;;;;6232285;23;20165;-78
2021/05/11 12:06:07;;;;;;;10.45;9.02;;;19.70;99.90;;;;;;6229694;23;20228;-78
2021/05/11 12:08:34;;;;;;;10.70;9.35;;;19.70;99.90;;;;;;6231458;23;20551;-79
2021/05/11 12:11:05;;;;;;;9.07;7.95;;;19.70;99.90;;;;;;6233077;22;20196;-79
2021/05/11 12:13:33;;;;;;;11.23;9.15;;;19.90;99.90;;;;;;6232808;23;20181;-79
2021/05/11 12:16:10;;;;;;;10.10;7.95;;;19.80;99.90;;;;;;6231029;23;20168;-79
2021/05/11 12:18:38;;;;;;;10.10;9.10;;;19.90;99.90;;;;;;6231738;23;20596;-78
2021/05/11 12:21:07;;;;;;;8.82;6.70;;;20.00;99.90;;;;;;6231889;23;20177;-80
2021/05/11 12:23:34;;;;;;;8.80;7.90;;;19.90;99.90;;;;;;6232040;23;20271;-79
2021/05/11 12:26:02;;;;;;;9.98;8.45;;;19.90;99.90;;;;;;6232475;23;20200;-77
2021/05/11 12:28:36;;;;;;;8.52;7.72;;;19.90;99.90;;;;;;6232300;23;20189;-80
2021/05/11 12:31:04;;;;;;;8.50;7.65;;;19.80;99.90;;;;;;6230922;23;20168;-78
2021/05/11 12:33:35;;;;;;;9.32;8.35;;;19.80;99.90;;;;;;6232256;23;20180;-78
2021/05/11 12:36:15;;;;;;;7.68;6.97;;;19.80;99.90;;;;;;6230414;23;20173;-80
2021/05/11 12:38:41;;;;;;;11.07;9.48;;;19.70;99.90;;;;;;6231953;23;20185;-79
2021/05/11 12:41:10;;;;;;;9.98;8.80;;;19.70;99.90;;;;;;6232099;23;20578;-78
2021/05/11 12:43:42;;;;;;;11.23;9.93;;;19.60;99.90;;;;;;6231470;23;20177;-79
2021/05/11 12:46:15;;;;;;;12.43;9.93;;;19.60;99.90;;;;;;6227808;23;20596;-79
2021/05/11 12:48:52;;;;;;;11.18;10.10;;;19.50;99.90;;;;;;6231711;23;20162;-77
2021/05/11 12:51:31;;;;;;;12.52;11.32;;;19.40;99.90;;;;;;6230488;23;20192;-78
2021/05/11 12:54:00;;;;;;;15.77;12.13;;;19.30;99.90;;;;;;6231077;23;20243;-79
2021/05/11 12:56:36;;;;;;;13.98;12.57;;;19.20;99.90;;;;;;6231221;23;20235;-79
2021/05/11 12:59:08;;;;;;;15.80;14.15;;;19.20;99.90;;;;;;6230337;23;20606;-78
2021/05/11 13:01:47;;;;;;;15.63;14.13;;;19.10;99.90;;;;;;6233027;23;20174;-79
2021/05/11 13:04:48;;;;;;;15.55;13.85;;;19.00;99.90;;;;;;6232568;23;20195;-80
2021/05/11 13:15:46;;;;;;;15.63;14.10;;;18.70;99.90;;;;;;6233638;23;20476;-80
2021/05/11 13:21:19;;;;;;;15.77;14.27;;;18.60;99.90;;;;;;6233728;23;20164;-79
2021/05/11 13:26:34;;;;;;;19.98;16.55;;;18.50;99.90;;;;;;6232868;23;20196;-77
2021/05/11 13:29:03;;;;;;;17.83;16.02;;;18.40;99.90;;;;;;6232291;23;20247;-78
2021/05/11 13:31:33;;;;;;;16.45;14.75;;;18.30;99.90;;;;;;6232520;23;20211;-79
2021/05/11 13:34:09;;;;;;;16.33;14.80;;;18.30;99.90;;;;;;6232189;23;20260;-76
2021/05/11 13:36:36;;;;;;;15.85;13.45;;;18.30;99.90;;;;;;6232791;23;20808;-79
2021/05/11 13:39:04;;;;;;;17.58;12.98;;;18.10;99.90;;;;;;6232219;23;20197;-78
2021/05/11 13:41:31;;;;;;;14.65;12.02;;;18.00;99.90;;;;;;6232084;23;20177;-77
2021/05/11 13:43:58;;;;;;;12.55;10.65;;;17.70;99.90;;;;;;6232843;23;20180;-78
2021/05/11 13:46:24;;;;;;;13.20;9.95;;;17.50;99.90;;;;;;6232133;23;20173;-77
2021/05/11 13:48:50;;;;;;;16.15;10.63;;;17.40;99.90;;;;;;6232406;23;20227;-77
2021/05/11 13:51:18;;;;;;;16.48;10.88;;;17.20;99.90;;;;;;6232584;23;20174;-78
2021/05/11 13:53:46;;;;;;;13.07;10.43;;;17.10;99.90;;;;;;6231301;23;20200;-78
2021/05/11 14:02:12;;;;;;;13.75;10.70;;;16.70;99.90;;;;;;6232853;23;20219;-77
2021/05/11 14:04:39;;;;;;;15.88;12.05;;;16.50;99.90;;;;;;6234125;23;20172;-77
2021/05/11 14:07:05;;;;;;;17.05;11.75;;;16.40;99.90;;;;;;6231924;23;20555;-77
2021/05/11 14:09:32;;;;;;;13.57;9.95;;;16.20;99.90;;;;;;6233596;22;20178;-76
2021/05/11 14:11:59;;;;;;;17.50;11.73;;;16.10;99.90;;;;;;6233276;23;20177;-76
2021/05/11 14:14:25;;;;;;;30.10;14.63;;;16.00;99.90;;;;;;6231999;23;20173;-76
2021/05/11 14:16:52;;;;;;;22.17;11.32;;;15.80;99.90;;;;;;6233355;23;20180;-75
2021/05/11 14:19:19;;;;;;;15.57;8.20;;;15.10;99.90;;;;;;6234076;23;20204;-76
2021/05/11 14:21:46;;;;;;;10.85;8.07;;;14.20;99.90;;;;;;6232104;23;20534;-76
2021/05/11 14:24:13;;;;;;;15.80;11.13;;;13.90;99.90;;;;;;6233785;23;20227;-77
2021/05/11 14:26:39;;;;;;;7.87;7.00;;;13.60;99.90;;;;;;6233819;23;20177;-74
2021/05/11 14:29:07;;;;;;;12.07;8.53;;;13.50;99.90;;;;;;6233041;23;20562;-77
2021/05/11 14:31:34;;;;;;;8.00;7.00;;;13.40;99.90;;;;;;6232822;23;20173;-77
2021/05/11 14:34:00;;;;;;;7.60;6.10;;;13.40;99.90;;;;;;6233597;23;20177;-78
2021/05/11 14:36:26;;;;;;;7.77;6.37;;;13.50;99.90;;;;;;6232986;23;20184;-77
2021/05/11 14:38:53;;;;;;;6.67;5.13;;;13.60;99.90;;;;;;6232150;23;20908;-76
2021/05/11 14:43:47;;;;;;;5.50;4.90;;;13.60;99.90;;;;;;6172605;23;20189;-75
2021/05/11 14:46:14;;;;;;;5.07;4.40;;;13.70;99.90;;;;;;6172530;23;20174;-77
2021/05/11 14:48:41;;;;;;;7.57;4.30;;;13.70;99.90;;;;;;6172006;23;20233;-78
2021/05/11 14:51:09;;;;;;;3.73;3.17;;;13.80;99.90;;;;;;6170920;23;20564;-80
2021/05/11 14:53:37;;;;;;;3.67;3.03;;;13.90;99.90;;;;;;6172132;23;20506;-78
2021/05/11 14:56:04;;;;;;;4.17;3.10;;;13.80;99.90;;;;;;6172867;23;20477;-77
2021/05/11 14:58:30;;;;;;;3.80;2.63;;;13.90;99.90;;;;;;6171329;23;20170;-78
2021/05/11 15:00:57;;;;;;;5.60;3.30;;;13.90;99.90;;;;;;6172035;23;20166;-77
2021/05/11 15:03:24;;;;;;;4.30;3.37;;;14.00;99.90;;;;;;6172713;23;20285;-79
2021/05/11 15:05:50;;;;;;;3.53;2.83;;;14.10;99.90;;;;;;6171734;23;20190;-78
2021/05/11 15:08:16;;;;;;;6.43;3.50;;;14.10;99.90;;;;;;6172353;23;20171;-78
2021/05/11 15:10:43;;;;;;;4.57;4.17;;;14.10;99.90;;;;;;6170515;23;20201;-77
2021/05/11 15:13:10;;;;;;;6.07;4.37;;;14.10;99.90;;;;;;6171525;23;20186;-78
2021/05/11 15:15:38;;;;;;;5.17;4.50;;;14.20;99.90;;;;;;6171720;23;20209;-78
2021/05/11 15:18:06;;;;;;;7.90;5.60;;;14.20;99.90;;;;;;6170910;23;20170;-75
2021/05/11 15:20:34;;;;;;;6.53;4.87;;;14.20;99.90;;;;;;6171865;23;20206;-81
2021/05/11 15:23:01;;;;;;;6.60;4.70;;;14.20;99.90;;;;;;6173008;23;20239;-77
2021/05/11 15:25:28;;;;;;;10.93;4.13;;;14.20;99.90;;;;;;6172402;23;20266;-79
2021/05/11 15:27:55;;;;;;;3.77;3.33;;;14.30;99.90;;;;;;6172530;23;20170;-79
2021/05/11 15:30:23;;;;;;;4.73;3.90;;;14.30;99.90;;;;;;6175165;23;20427;-77
2021/05/11 15:32:53;;;;;;;4.50;4.10;;;14.20;99.90;;;;;;6173260;23;20236;-80
2021/05/11 15:35:23;;;;;;;5.77;4.10;;;14.20;99.90;;;;;;6173529;23;20174;-81
2021/05/11 15:37:57;;;;;;;4.97;3.70;;;14.20;99.90;;;;;;6174116;23;20606;-76
2021/05/11 15:40:24;;;;;;;4.67;2.97;;;14.20;99.90;;;;;;6173218;23;20217;-81
2021/05/11 15:42:52;;;;;;;5.67;3.77;;;14.30;99.90;;;;;;6173160;23;20206;-75
2021/05/11 15:45:19;;;;;;;4.63;3.40;;;14.30;99.90;;;;;;6174224;23;20178;-81
2021/05/11 15:47:55;;;;;;;4.50;3.53;;;14.30;99.90;;;;;;6172853;23;20681;-80
2021/05/11 15:50:23;;;;;;;3.63;3.33;;;14.30;99.90;;;;;;6173323;23;20198;-78
2021/05/11 15:52:54;;;;;;;3.27;2.90;;;14.40;99.90;;;;;;6173806;23;20603;-78
2021/05/11 15:55:20;;;;;;;5.23;3.27;;;14.40;99.90;;;;;;6173071;23;20198;-84
2021/05/11 15:57:48;;;;;;;4.23;2.83;;;14.50;99.90;;;;;;6173829;23;20178;-79
2021/05/11 16:00:15;;;;;;;4.23;2.97;;;14.50;99.90;;;;;;6174300;23;20213;-78
2021/05/11 16:02:44;;;;;;;4.30;2.80;;;14.50;99.90;;;;;;6173544;23;20182;-79
2021/05/11 16:05:12;;;;;;;3.00;2.57;;;14.60;99.90;;;;;;6173792;23;20497;-77
2021/05/11 16:07:38;;;;;;;2.60;2.40;;;14.50;99.90;;;;;;6173547;23;20178;-82
2021/05/11 16:10:08;;;;;;;2.23;2.00;;;14.50;99.90;;;;;;6173795;23;20269;-79
2021/05/11 16:12:36;;;;;;;2.70;2.03;;;14.60;99.90;;;;;;6176141;23;20178;-79
2021/05/11 16:15:07;;;;;;;2.40;2.20;;;14.60;99.90;;;;;;6174409;23;20627;-78